Pine Flat, Mississippi
Current Conditions -  °F | °C
As of 6:35 PM on Sunday 25 Jan 2015 (Local Time) from KUOX Reporting Station
Broken Clouds Broken Clouds  
Wind Chill: 42°   Ceiling: 5500
Heat Index: 48°   Visibility: 10mi
Dew Point: 37°   Wind: 17mph
Humidity: 66%   Direction: 300°WNW
Pressure: 29.84"   Gusts: NA
Location:  34.142°N, 89.6332°W
Report Text: KUOX 260035Z AUTO 30015KT 10SM SCT050 BKN055 09/03 A2984 RMK AO2 PWINO PNO
Loading
Personal Weather Stations






























Interactive Weather Map New forecast layout! Learn more

10-Day Weather Forecast

Advertisements
Track Severe Weather on mobile